Farson, Iowa
Current Conditions -  °F | °C
As of 2:15 PM on Sunday 23 Nov 2014 (Local Time) from KOOA Reporting Station
Moderate Rain Moderate Rain  
Wind Chill: 52°   Ceiling: 400
Heat Index: 52°   Visibility: 3mi
Dew Point: 51°   Wind: 5mph
Humidity: 97%   Direction: 180°S
Pressure: 29.35"   Gusts: NA
Location:  41.2094°N, 92.3382°W
Report Text: KOOA 232015Z AUTO 18004KT 3SM RA OVC004 11/11 A2935 RMK AO2 P0001 T01110107
Loading
Personal Weather Stations






























Interactive Weather Map New forecast layout! Learn more

10-Day Weather Forecast

Advertisements
Track Severe Weather on mobile